createdAt,value
2023-03-21T00:00:43.176Z,13.02
2023-03-21T00:03:10.251Z,12.23
2023-03-21T00:05:42.126Z,12.05
2023-03-21T00:08:08.985Z,12.83
2023-03-21T00:10:41.656Z,13.63
2023-03-21T00:13:13.136Z,13.95
2023-03-21T00:16:03.439Z,14.27
2023-03-21T00:18:32.417Z,13.95
2023-03-21T00:21:29.210Z,12.37
2023-03-21T00:23:48.243Z,12.57
2023-03-21T00:26:15.385Z,11.98
2023-03-21T00:28:43.684Z,12.43
2023-03-21T00:31:11.039Z,11.65
2023-03-21T00:33:39.046Z,11.20
2023-03-21T00:36:07.182Z,11.98
2023-03-21T00:38:34.803Z,11.32
2023-03-21T00:41:20.979Z,10.50
2023-03-21T00:43:55.501Z,12.07
2023-03-21T00:46:23.521Z,11.73
2023-03-21T00:48:52.126Z,11.13
2023-03-21T00:51:26.342Z,11.50
2023-03-21T00:53:58.063Z,12.55
2023-03-21T00:56:24.868Z,10.80
2023-03-21T00:58:51.467Z,12.13
2023-03-21T01:01:18.654Z,11.88
2023-03-21T01:03:50.636Z,11.23
2023-03-21T01:06:19.436Z,12.23
2023-03-21T01:08:52.592Z,11.57
2023-03-21T01:11:23.620Z,12.57
2023-03-21T01:13:56.267Z,12.32
2023-03-21T01:16:28.930Z,12.40
2023-03-21T01:18:56.142Z,12.73
2023-03-21T01:21:22.905Z,13.95
2023-03-21T01:23:49.567Z,13.43
2023-03-21T01:26:16.771Z,15.48
2023-03-21T01:28:44.755Z,15.18
2023-03-21T01:31:13.704Z,15.10
2023-03-21T01:33:41.244Z,14.18
2023-03-21T01:36:13.132Z,15.80
2023-03-21T01:38:41.645Z,15.95
2023-03-21T01:41:42.851Z,16.05
2023-03-21T01:44:16.209Z,17.20
2023-03-21T01:46:53.940Z,16.38
2023-03-21T01:49:34.187Z,17.53
2023-03-21T01:52:13.193Z,18.38
2023-03-21T01:54:43.540Z,18.48
2023-03-21T01:57:15.836Z,17.77
2023-03-21T01:59:51.301Z,18.45
2023-03-21T02:02:29.095Z,20.23
2023-03-21T02:04:58.286Z,19.67
2023-03-21T02:07:31.532Z,19.90
2023-03-21T02:09:59.260Z,20.13
2023-03-21T02:12:27.540Z,19.25
2023-03-21T02:14:55.528Z,19.30
2023-03-21T02:17:32.462Z,18.27
2023-03-21T02:20:25.189Z,19.00
2023-03-21T02:23:07.445Z,18.73
2023-03-21T02:25:56.598Z,18.33
2023-03-21T02:28:29.092Z,18.87
2023-03-21T02:31:10.842Z,19.17
2023-03-21T02:34:24.248Z,19.27
2023-03-21T02:37:15.255Z,17.88
2023-03-21T02:39:56.056Z,19.08
2023-03-21T02:42:28.917Z,18.87
2023-03-21T02:45:20.692Z,20.15
2023-03-21T02:47:59.889Z,19.45
2023-03-21T02:50:26.451Z,20.48
2023-03-21T02:52:55.042Z,19.95
2023-03-21T02:55:27.055Z,20.43
2023-03-21T02:57:56.518Z,19.70
2023-03-21T03:00:27.565Z,19.55
2023-03-21T03:03:07.894Z,20.35
2023-03-21T03:05:41.808Z,18.50
2023-03-21T03:08:08.632Z,17.73
2023-03-21T03:10:56.751Z,18.88
2023-03-21T03:13:48.025Z,18.27
2023-03-21T03:16:36.719Z,18.55
2023-03-21T03:19:10.216Z,16.90
2023-03-21T03:21:49.727Z,17.57
2023-03-21T03:24:29.237Z,16.13
2023-03-21T03:27:01.769Z,14.07
2023-03-21T03:29:31.132Z,15.18
2023-03-21T03:32:12.065Z,14.98
2023-03-21T03:34:44.163Z,14.47
2023-03-21T03:37:14.622Z,14.30
2023-03-21T03:39:50.268Z,12.98
2023-03-21T03:42:28.494Z,13.27
2023-03-21T03:44:56.439Z,13.55
2023-03-21T03:47:50.698Z,13.83
2023-03-21T03:50:34.289Z,13.40
2023-03-21T03:53:23.581Z,13.40
2023-03-21T03:55:51.624Z,13.85
2023-03-21T03:58:26.020Z,14.15
2023-03-21T04:00:58.306Z,13.73
2023-03-21T04:03:24.960Z,13.73
2023-03-21T04:05:51.706Z,15.38
2023-03-21T04:08:18.366Z,16.63
2023-03-21T04:10:48.246Z,17.80
2023-03-21T04:13:15.381Z,16.40
2023-03-21T04:15:43.483Z,18.42
2023-03-21T04:18:10.101Z,18.15
2023-03-21T04:20:37.573Z,20.15
2023-03-21T04:23:05.977Z,19.45
2023-03-21T04:25:42.282Z,20.07
2023-03-21T04:28:14.392Z,19.20
2023-03-21T04:30:44.971Z,20.10
2023-03-21T04:33:16.046Z,20.40
2023-03-21T04:35:42.718Z,21.23
2023-03-21T04:38:09.303Z,21.67
2023-03-21T04:40:36.123Z,20.42
2023-03-21T04:43:02.882Z,21.60
2023-03-21T04:45:29.532Z,21.95
2023-03-21T04:47:57.326Z,22.42
2023-03-21T04:50:23.961Z,22.93
2023-03-21T04:52:50.556Z,21.60
2023-03-21T04:55:17.399Z,21.58
2023-03-21T04:57:43.981Z,20.90
2023-03-21T05:00:11.188Z,19.80
2023-03-21T05:02:38.856Z,19.67
2023-03-21T05:05:06.712Z,17.13
2023-03-21T05:07:33.288Z,17.50
2023-03-21T05:10:01.942Z,16.40
2023-03-21T05:12:29.121Z,16.42
2023-03-21T05:14:56.026Z,17.30
2023-03-21T05:17:28.320Z,17.17
2023-03-21T05:19:56.503Z,16.40
2023-03-21T05:22:26.679Z,15.27
2023-03-21T05:24:55.197Z,15.10
2023-03-21T05:27:34.944Z,15.80
2023-03-21T05:30:04.326Z,15.38
2023-03-21T05:32:31.146Z,15.38
2023-03-21T05:34:57.828Z,14.07
2023-03-21T05:37:24.810Z,14.93
2023-03-21T05:39:51.519Z,14.57
2023-03-21T05:42:18.664Z,14.57
2023-03-21T05:44:46.107Z,15.10
2023-03-21T05:47:14.163Z,15.02
2023-03-21T05:49:40.829Z,16.13
2023-03-21T05:52:07.699Z,16.10
2023-03-21T05:54:34.377Z,14.30
2023-03-21T05:57:00.954Z,14.82
2023-03-21T05:59:27.623Z,14.38
2023-03-21T06:01:54.268Z,14.77
2023-03-21T06:04:21.009Z,14.80
2023-03-21T06:06:47.654Z,14.45
2023-03-21T06:09:14.331Z,14.88
2023-03-21T06:11:46.236Z,15.70
2023-03-21T06:14:13.077Z,15.02
2023-03-21T06:16:39.814Z,14.53
2023-03-21T06:19:06.514Z,14.13
2023-03-21T06:21:33.112Z,15.15
2023-03-21T06:23:59.842Z,14.15
2023-03-21T06:26:26.556Z,14.43
2023-03-21T06:28:53.578Z,14.10
2023-03-21T06:31:22.494Z,13.55
2023-03-21T06:33:49.922Z,13.18
2023-03-21T06:36:16.559Z,13.80
2023-03-21T06:38:43.461Z,13.07
2023-03-21T06:41:10.683Z,13.77
2023-03-21T06:43:37.266Z,14.10
2023-03-21T06:46:04.259Z,13.60
2023-03-21T06:48:31.221Z,12.70
2023-03-21T06:50:57.907Z,12.77
2023-03-21T06:53:27.474Z,13.00
2023-03-21T06:55:54.724Z,11.82
2023-03-21T06:58:22.969Z,11.60
2023-03-21T07:00:50.335Z,13.13
2023-03-21T07:03:17.082Z,12.30
2023-03-21T07:05:43.750Z,12.73
2023-03-21T07:08:12.247Z,12.13
2023-03-21T07:10:40.289Z,12.55
2023-03-21T07:13:07.414Z,11.80
2023-03-21T07:15:38.135Z,12.10
2023-03-21T07:18:06.441Z,11.90
2023-03-21T07:20:33.314Z,11.05
2023-03-21T07:23:00.775Z,11.45
2023-03-21T07:25:28.136Z,9.93
2023-03-21T07:27:54.779Z,11.23
2023-03-21T07:30:21.642Z,10.43
2023-03-21T07:32:48.757Z,10.20
2023-03-21T07:35:17.578Z,10.30
2023-03-21T07:37:44.474Z,11.13
2023-03-21T07:40:12.317Z,10.30
2023-03-21T07:42:42.684Z,10.13
2023-03-21T07:45:10.277Z,10.30
2023-03-21T07:47:37.069Z,9.50
2023-03-21T07:50:06.184Z,9.85
2023-03-21T07:52:33.043Z,10.07
2023-03-21T07:54:59.733Z,9.27
2023-03-21T07:57:26.521Z,8.98
2023-03-21T07:59:53.212Z,9.63
2023-03-21T08:02:20.035Z,9.63
2023-03-21T08:04:47.266Z,10.20
2023-03-21T08:07:14.176Z,9.13
2023-03-21T08:09:41.068Z,9.48
2023-03-21T08:12:10.583Z,9.57
2023-03-21T08:14:37.575Z,9.93
2023-03-21T08:17:05.682Z,10.40
2023-03-21T08:19:32.852Z,8.97
2023-03-21T08:21:59.796Z,10.10
2023-03-21T08:24:27.344Z,9.88
2023-03-21T08:26:54.653Z,9.25
2023-03-21T08:29:22.440Z,9.50
2023-03-21T08:31:49.361Z,9.10
2023-03-21T08:34:19.566Z,9.00
2023-03-21T08:36:47.160Z,9.70
2023-03-21T08:39:17.631Z,8.90
2023-03-21T08:41:44.563Z,8.88
2023-03-21T08:44:11.317Z,8.63
2023-03-21T08:46:38.092Z,8.15
2023-03-21T08:49:04.875Z,8.55
2023-03-21T08:51:31.651Z,9.23
2023-03-21T08:53:58.301Z,6.95
2023-03-21T08:56:25.252Z,8.07
2023-03-21T08:58:51.945Z,7.88
2023-03-21T09:04:06.435Z,7.78
2023-03-21T09:09:29.170Z,6.93
2023-03-21T09:11:59.224Z,6.57
2023-03-21T09:14:29.116Z,6.10
2023-03-21T09:16:56.422Z,6.32
2023-03-21T09:19:24.428Z,6.85
2023-03-21T09:21:53.362Z,6.37
2023-03-21T09:24:20.618Z,7.47
2023-03-21T09:26:53.025Z,6.85
2023-03-21T09:29:25.743Z,6.97
2023-03-21T09:31:53.524Z,6.78
2023-03-21T09:34:30.941Z,7.23
2023-03-21T09:36:58.175Z,6.93
2023-03-21T09:39:26.281Z,6.97
2023-03-21T09:42:15.405Z,6.18
2023-03-21T09:45:22.899Z,7.00
2023-03-21T09:47:54.849Z,6.63
2023-03-21T09:51:00.493Z,6.47
2023-03-21T09:53:51.922Z,6.63
2023-03-21T09:56:26.295Z,6.65
2023-03-21T09:58:59.943Z,6.20
2023-03-21T10:01:41.844Z,7.13
2023-03-21T10:04:21.264Z,6.95
2023-03-21T10:06:58.515Z,7.18
2023-03-21T10:09:57.554Z,7.05
2023-03-21T10:12:31.812Z,7.57
2023-03-21T10:15:01.667Z,7.03
2023-03-21T10:17:55.642Z,6.95
2023-03-21T10:20:37.470Z,7.35
2023-03-21T10:23:10.885Z,7.50
2023-03-21T10:25:50.761Z,6.60
2023-03-21T10:28:31.087Z,6.60
2023-03-21T10:31:08.615Z,6.85
2023-03-21T10:33:43.347Z,6.90
2023-03-21T10:36:25.771Z,7.28
2023-03-21T10:39:15.757Z,7.60
2023-03-21T10:44:31.106Z,6.38
2023-03-21T10:47:03.636Z,6.43
2023-03-21T10:49:40.170Z,6.90
2023-03-21T10:52:13.471Z,6.40
2023-03-21T10:54:40.788Z,6.53
2023-03-21T10:57:18.184Z,6.15
2023-03-21T10:59:53.726Z,6.35
2023-03-21T11:02:26.291Z,6.05
2023-03-21T11:04:54.766Z,5.78
2023-03-21T11:07:23.559Z,6.43
2023-03-21T11:10:01.637Z,5.80
2023-03-21T11:12:35.667Z,6.38
2023-03-21T11:15:37.835Z,6.32
2023-03-21T11:18:19.989Z,6.63
2023-03-21T11:21:11.674Z,6.13
2023-03-21T11:23:46.148Z,6.20
2023-03-21T11:26:24.472Z,5.88
2023-03-21T11:28:51.933Z,5.65
2023-03-21T11:31:18.995Z,5.78
2023-03-21T11:33:53.686Z,5.90
2023-03-21T11:36:20.804Z,5.88
2023-03-21T11:38:51.110Z,6.47
2023-03-21T11:41:32.635Z,6.00
2023-03-21T11:44:00.580Z,5.13
2023-03-21T11:46:31.891Z,6.10
2023-03-21T11:49:00.450Z,6.65
2023-03-21T11:51:51.665Z,6.57
2023-03-21T11:54:21.786Z,5.80
2023-03-21T11:57:07.699Z,6.05
2023-03-21T11:59:54.265Z,5.97
2023-03-21T12:02:36.177Z,5.53
2023-03-21T12:05:20.050Z,6.95
2023-03-21T12:08:06.916Z,5.85
2023-03-21T12:10:53.664Z,6.13
2023-03-21T12:13:41.425Z,6.00
2023-03-21T12:16:24.892Z,6.85
2023-03-21T12:19:28.006Z,5.68
2023-03-21T12:22:37.812Z,6.22
2023-03-21T12:25:16.914Z,6.35
2023-03-21T12:28:06.578Z,5.90
2023-03-21T12:31:02.056Z,6.78
2023-03-21T12:33:56.670Z,6.18
2023-03-21T12:36:45.197Z,5.90
2023-03-21T12:39:34.856Z,5.68
2023-03-21T12:42:28.651Z,6.40
2023-03-21T12:45:06.065Z,6.20
2023-03-21T12:47:35.504Z,6.13
2023-03-21T12:50:06.717Z,7.00
2023-03-21T12:52:41.885Z,7.00
2023-03-21T12:55:24.801Z,6.50
2023-03-21T12:58:01.795Z,7.80
2023-03-21T13:01:01.270Z,7.57
2023-03-21T13:03:40.134Z,7.75
2023-03-21T13:06:09.325Z,7.40
2023-03-21T13:08:46.428Z,7.90
2023-03-21T13:11:17.657Z,8.20
2023-03-21T13:13:52.770Z,8.43
2023-03-21T13:16:31.009Z,6.60
2023-03-21T13:19:06.265Z,7.43
2023-03-21T13:21:52.371Z,6.53
2023-03-21T13:24:27.962Z,6.75
2023-03-21T13:27:02.400Z,5.72
2023-03-21T13:29:44.153Z,5.30
2023-03-21T13:32:21.720Z,5.45
2023-03-21T13:34:56.071Z,6.20
2023-03-21T13:37:25.139Z,5.90
2023-03-21T13:39:51.988Z,6.70
2023-03-21T13:42:23.551Z,6.55
2023-03-21T13:44:57.792Z,6.25
2023-03-21T13:48:01.937Z,6.23
2023-03-21T13:50:52.787Z,6.10
2023-03-21T13:53:22.432Z,5.72
2023-03-21T13:55:59.898Z,6.03
2023-03-21T13:58:39.124Z,5.70
2023-03-21T14:01:13.969Z,5.83
2023-03-21T14:03:41.892Z,6.45
2023-03-21T14:06:10.728Z,5.90
2023-03-21T14:08:40.934Z,5.82
2023-03-21T14:11:11.781Z,6.28
2023-03-21T14:13:50.843Z,6.40
2023-03-21T14:16:20.230Z,6.78
2023-03-21T14:18:55.034Z,6.63
2023-03-21T14:21:34.080Z,7.15
2023-03-21T14:24:12.556Z,7.00
2023-03-21T14:26:43.214Z,7.20
2023-03-21T14:29:26.278Z,7.10
2023-03-21T14:31:55.451Z,7.50
2023-03-21T14:34:23.369Z,7.55
2023-03-21T14:36:57.554Z,7.60
2023-03-21T14:39:30.692Z,7.47
2023-03-21T14:42:04.719Z,8.27
2023-03-21T14:44:44.128Z,7.32
2023-03-21T14:47:24.356Z,7.05
2023-03-21T14:49:51.748Z,7.40
2023-03-21T14:52:24.871Z,7.40
2023-03-21T14:54:52.569Z,7.25
2023-03-21T14:57:23.125Z,7.18
2023-03-21T14:59:54.010Z,7.25
2023-03-21T15:02:25.495Z,7.45
2023-03-21T15:04:58.696Z,7.90
2023-03-21T15:07:29.520Z,7.75
2023-03-21T15:09:58.112Z,8.30
2023-03-21T15:12:24.859Z,7.00
2023-03-21T15:14:52.234Z,6.85
2023-03-21T15:17:19.506Z,6.70
2023-03-21T15:19:46.514Z,7.43
2023-03-21T15:22:28.154Z,6.97
2023-03-21T15:25:01.786Z,7.03
2023-03-21T15:27:31.449Z,6.78
2023-03-21T15:29:58.276Z,7.47
2023-03-21T15:32:28.715Z,6.93
2023-03-21T15:35:04.434Z,7.35
2023-03-21T15:37:36.675Z,7.75
2023-03-21T15:40:28.273Z,7.28
2023-03-21T15:43:18.116Z,7.77
2023-03-21T15:45:56.409Z,8.00
2023-03-21T15:48:29.327Z,8.10
2023-03-21T15:51:03.439Z,8.30
2023-03-21T15:53:33.575Z,7.53
2023-03-21T15:56:05.937Z,7.50
2023-03-21T15:58:41.260Z,7.20
2023-03-21T16:01:26.321Z,8.05
2023-03-21T16:04:02.039Z,6.50
2023-03-21T16:06:36.827Z,8.25
2023-03-21T16:09:08.791Z,7.67
2023-03-21T16:11:40.106Z,7.43
2023-03-21T16:14:07.805Z,8.07
2023-03-21T16:16:34.775Z,8.07
2023-03-21T16:19:02.874Z,8.27
2023-03-21T16:21:31.193Z,8.03
2023-03-21T16:24:00.794Z,8.43
2023-03-21T16:26:31.365Z,8.90
2023-03-21T16:28:58.420Z,9.63
2023-03-21T16:31:27.514Z,9.82
2023-03-21T16:33:54.229Z,9.43
2023-03-21T16:36:25.589Z,8.77
2023-03-21T16:38:53.635Z,9.23
2023-03-21T16:41:21.705Z,8.15
2023-03-21T16:43:48.656Z,9.13
2023-03-21T16:46:17.763Z,8.83
2023-03-21T16:48:48.896Z,8.98
2023-03-21T16:51:21.612Z,9.20
2023-03-21T16:53:49.441Z,8.20
2023-03-21T16:56:33.516Z,8.48
2023-03-21T16:59:00.232Z,7.73
2023-03-21T17:01:27.574Z,6.85
2023-03-21T17:03:54.517Z,7.80
2023-03-21T17:06:24.393Z,5.78
2023-03-21T17:08:52.523Z,5.57
2023-03-21T17:11:21.664Z,5.20
2023-03-21T17:13:53.024Z,5.50
2023-03-21T17:16:26.842Z,5.22
2023-03-21T17:18:54.577Z,4.95
2023-03-21T17:21:23.439Z,5.18
2023-03-21T17:23:51.058Z,5.37
2023-03-21T17:26:28.957Z,5.38
2023-03-21T17:28:59.801Z,5.97
2023-03-21T17:31:27.921Z,6.28
2023-03-21T17:33:54.600Z,6.30
2023-03-21T17:36:35.515Z,6.40
2023-03-21T17:39:04.401Z,6.55
2023-03-21T17:41:31.088Z,6.80
2023-03-21T17:43:57.707Z,7.00
2023-03-21T17:46:27.721Z,6.50
2023-03-21T17:48:54.728Z,7.10
2023-03-21T17:51:23.599Z,7.07
2023-03-21T17:53:51.002Z,6.90
2023-03-21T17:56:30.777Z,7.63
2023-03-21T17:58:59.999Z,7.10
2023-03-21T18:01:27.019Z,7.23
2023-03-21T18:03:56.468Z,7.40
2023-03-21T18:06:25.940Z,7.07
2023-03-21T18:08:53.949Z,6.93
2023-03-21T18:11:22.919Z,7.22
2023-03-21T18:13:50.337Z,6.90
2023-03-21T18:16:22.846Z,6.88
2023-03-21T18:18:53.738Z,6.60
2023-03-21T18:21:22.749Z,6.57
2023-03-21T18:23:49.727Z,6.13
2023-03-21T18:26:21.205Z,6.00
2023-03-21T18:29:43.891Z,5.65
2023-03-21T18:31:37.628Z,6.03
2023-03-21T18:34:04.285Z,5.70
2023-03-21T18:36:30.980Z,6.40
2023-03-21T18:38:58.821Z,5.17
2023-03-21T18:41:25.951Z,5.50
2023-03-21T18:44:02.729Z,6.25
2023-03-21T18:46:36.749Z,5.50
2023-03-21T18:49:33.280Z,6.38
2023-03-21T18:51:51.766Z,6.23
2023-03-21T18:54:18.664Z,6.07
2023-03-21T18:57:31.792Z,6.60
2023-03-21T18:59:38.829Z,7.15
2023-03-21T19:02:06.532Z,7.25
2023-03-21T19:04:33.725Z,7.30
2023-03-21T19:07:00.408Z,7.75
2023-03-21T19:09:31.584Z,7.32
2023-03-21T19:11:58.494Z,7.03
2023-03-21T19:14:25.463Z,8.00
2023-03-21T19:19:39.326Z,7.10
2023-03-21T19:22:06.282Z,7.53
2023-03-21T19:24:32.959Z,8.15
2023-03-21T19:26:59.576Z,7.43
2023-03-21T19:29:26.460Z,8.40
2023-03-21T19:31:53.383Z,7.72
2023-03-21T19:34:20.809Z,8.82
2023-03-21T19:36:51.562Z,8.90
2023-03-21T19:39:22.003Z,8.07
2023-03-21T19:41:50.008Z,9.00
2023-03-21T19:44:17.557Z,9.57
2023-03-21T19:46:44.190Z,9.88
2023-03-21T19:49:11.167Z,10.10
2023-03-21T19:51:37.819Z,10.15
2023-03-21T19:54:05.552Z,10.07
2023-03-21T19:56:34.349Z,10.80
2023-03-21T19:59:02.756Z,11.07
2023-03-21T20:01:29.702Z,11.07
2023-03-21T20:03:56.388Z,10.80
2023-03-21T20:06:23.935Z,11.40
2023-03-21T20:11:38.567Z,9.93
2023-03-21T20:14:06.270Z,9.85
2023-03-21T20:16:35.779Z,10.43
2023-03-21T20:19:05.013Z,10.07
2023-03-21T20:21:41.124Z,9.68
2023-03-21T20:24:11.364Z,9.05
2023-03-21T20:26:38.292Z,9.32
2023-03-21T20:29:41.067Z,10.13
2023-03-21T20:31:53.113Z,9.53
2023-03-21T20:34:20.604Z,10.30
2023-03-21T20:36:48.182Z,10.52
2023-03-21T20:39:15.405Z,11.95
2023-03-21T20:41:42.131Z,11.02
2023-03-21T20:46:56.645Z,10.73
2023-03-21T20:49:24.325Z,10.95
2023-03-21T20:54:38.484Z,9.10
2023-03-21T20:57:05.385Z,9.23
2023-03-21T20:59:32.464Z,9.98
2023-03-21T21:01:59.924Z,7.95
2023-03-21T21:04:48.136Z,8.10
2023-03-21T21:07:18.737Z,7.55
2023-03-21T21:09:45.996Z,6.80
2023-03-21T21:12:14.893Z,6.78
2023-03-21T21:14:42.526Z,7.50
2023-03-21T21:17:40.685Z,6.63
2023-03-21T21:19:56.420Z,7.20
2023-03-21T21:22:23.085Z,6.53
2023-03-21T21:24:49.835Z,5.85
2023-03-21T21:27:16.451Z,5.93
2023-03-21T21:29:43.323Z,6.40
2023-03-21T21:32:11.092Z,5.80
2023-03-21T21:34:37.725Z,6.30
2023-03-21T21:37:04.359Z,6.55
2023-03-21T21:39:37.615Z,6.10
2023-03-21T21:42:05.117Z,6.30
2023-03-21T21:44:31.749Z,6.30
2023-03-21T21:46:58.611Z,6.53
2023-03-21T21:49:25.431Z,6.70
2023-03-21T21:51:52.004Z,7.15
2023-03-21T21:54:21.842Z,7.82
2023-03-21T21:56:48.595Z,7.15
2023-03-21T21:59:18.557Z,7.00
2023-03-21T22:01:46.585Z,7.60
2023-03-21T22:04:14.505Z,6.82
2023-03-21T22:06:43.118Z,7.05
2023-03-21T22:09:13.978Z,5.68
2023-03-21T22:11:40.857Z,6.43
2023-03-21T22:14:07.534Z,5.65
2023-03-21T22:16:34.242Z,5.38
2023-03-21T22:19:00.909Z,5.68
2023-03-21T22:21:27.548Z,5.32
2023-03-21T22:23:54.144Z,5.70
2023-03-21T22:26:20.991Z,4.72
2023-03-21T22:28:47.686Z,4.65
2023-03-21T22:31:16.991Z,4.25
2023-03-21T22:33:44.738Z,4.28
2023-03-21T22:36:12.011Z,3.50
2023-03-21T22:38:38.808Z,4.05
2023-03-21T22:41:06.324Z,3.70
2023-03-21T22:43:35.948Z,3.42
2023-03-21T22:46:04.899Z,2.95
2023-03-21T22:48:32.312Z,3.30
2023-03-21T22:51:00.004Z,2.95
2023-03-21T22:53:26.860Z,3.13
2023-03-21T22:55:53.736Z,2.90
2023-03-21T22:58:20.606Z,3.03
2023-03-21T23:00:47.703Z,3.40
2023-03-21T23:03:16.535Z,2.78
2023-03-21T23:05:44.241Z,3.67
2023-03-21T23:08:10.996Z,2.58
2023-03-21T23:10:43.546Z,2.80
2023-03-21T23:13:10.560Z,2.67
2023-03-21T23:15:38.561Z,2.97
2023-03-21T23:18:05.543Z,2.55
2023-03-21T23:20:32.186Z,2.40
2023-03-21T23:22:58.803Z,1.92
2023-03-21T23:25:25.426Z,1.93
2023-03-21T23:27:52.070Z,2.22
2023-03-21T23:30:18.925Z,2.40
2023-03-21T23:32:45.616Z,2.22
2023-03-21T23:35:12.384Z,1.95
2023-03-21T23:37:42.380Z,2.63
2023-03-21T23:40:10.309Z,2.00
2023-03-21T23:42:37.047Z,2.78
2023-03-21T23:45:04.424Z,2.25
2023-03-21T23:47:31.012Z,2.25
2023-03-21T23:49:57.898Z,1.90
2023-03-21T23:52:24.526Z,1.85
2023-03-21T23:54:51.250Z,1.98
2023-03-21T23:57:17.971Z,2.55
2023-03-21T23:59:46.844Z,2.00
